sensor_id;sensor_type;location;lat;lon;timestamp;pressure;altitude;pressure_sealevel;temperature;humidity
77043;BME280;65975;53.936;27.540;2023-02-28T00:02:20;100530.72;;;-4.17;72.78
77043;BME280;65975;53.936;27.540;2023-02-28T00:04:46;100530.00;;;-4.15;73.02
77043;BME280;65975;53.936;27.540;2023-02-28T00:07:27;100535.56;;;-3.72;71.73
77043;BME280;65975;53.936;27.540;2023-02-28T00:09:53;100525.09;;;-3.58;70.68
77043;BME280;65975;53.936;27.540;2023-02-28T00:12:18;100536.56;;;-3.86;71.48
77043;BME280;65975;53.936;27.540;2023-02-28T00:14:44;100516.88;;;-3.87;71.37
77043;BME280;65975;53.936;27.540;2023-02-28T00:17:09;100536.19;;;-3.76;71.04
77043;BME280;65975;53.936;27.540;2023-02-28T00:19:35;100530.56;;;-3.69;71.07
77043;BME280;65975;53.936;27.540;2023-02-28T00:22:00;100518.28;;;-3.40;70.54
77043;BME280;65975;53.936;27.540;2023-02-28T00:24:26;100518.13;;;-3.43;70.10
77043;BME280;65975;53.936;27.540;2023-02-28T00:26:51;100516.53;;;-3.41;70.12
77043;BME280;65975;53.936;27.540;2023-02-28T00:29:17;100497.03;;;-4.26;71.89
77043;BME280;65975;53.936;27.540;2023-02-28T00:31:42;100504.06;;;-3.71;71.17
77043;BME280;65975;53.936;27.540;2023-02-28T00:34:08;100512.09;;;-3.45;70.51
77043;BME280;65975;53.936;27.540;2023-02-28T00:36:33;100468.34;;;-3.68;71.23
77043;BME280;65975;53.936;27.540;2023-02-28T00:38:58;100518.16;;;-3.61;71.28
77043;BME280;65975;53.936;27.540;2023-02-28T00:41:24;100518.34;;;-3.92;71.91
77043;BME280;65975;53.936;27.540;2023-02-28T00:43:49;100503.00;;;-3.92;72.71
77043;BME280;65975;53.936;27.540;2023-02-28T00:46:15;100534.69;;;-4.56;74.30
77043;BME280;65975;53.936;27.540;2023-02-28T00:48:41;100526.47;;;-4.34;73.13
77043;BME280;65975;53.936;27.540;2023-02-28T00:51:06;100533.25;;;-4.51;73.83
77043;BME280;65975;53.936;27.540;2023-02-28T00:53:31;100529.78;;;-4.19;73.10
77043;BME280;65975;53.936;27.540;2023-02-28T00:56:00;100534.47;;;-4.77;74.79
77043;BME280;65975;53.936;27.540;2023-02-28T00:58:26;100550.16;;;-5.02;75.78
77043;BME280;65975;53.936;27.540;2023-02-28T01:00:52;100329.25;;;-5.92;75.05
77043;BME280;65975;53.936;27.540;2023-02-28T01:03:19;100528.69;;;-4.73;75.40
77043;BME280;65975;53.936;27.540;2023-02-28T01:05:45;100534.06;;;-4.68;75.17
77043;BME280;65975;53.936;27.540;2023-02-28T01:08:12;100535.34;;;-4.76;75.11
77043;BME280;65975;53.936;27.540;2023-02-28T01:10:39;100393.81;;;-5.61;75.23
77043;BME280;65975;53.936;27.540;2023-02-28T01:13:05;100533.75;;;-4.74;74.69
77043;BME280;65975;53.936;27.540;2023-02-28T01:15:30;100519.28;;;-4.90;75.33
77043;BME280;65975;53.936;27.540;2023-02-28T01:17:57;100453.53;;;-5.27;74.95
77043;BME280;65975;53.936;27.540;2023-02-28T01:20:23;100524.00;;;-4.81;75.16
77043;BME280;65975;53.936;27.540;2023-02-28T01:22:48;100518.25;;;-4.94;75.72
77043;BME280;65975;53.936;27.540;2023-02-28T01:25:14;100518.00;;;-4.82;75.32
77043;BME280;65975;53.936;27.540;2023-02-28T01:27:39;100403.09;;;-5.47;74.74
77043;BME280;65975;53.936;27.540;2023-02-28T01:30:06;100510.03;;;-4.56;74.24
77043;BME280;65975;53.936;27.540;2023-02-28T01:32:32;100474.22;;;-5.06;74.64
77043;BME280;65975;53.936;27.540;2023-02-28T01:34:57;100489.28;;;-4.94;74.58
77043;BME280;65975;53.936;27.540;2023-02-28T01:37:23;100510.19;;;-4.85;74.45
77043;BME280;65975;53.936;27.540;2023-02-28T01:39:48;100506.56;;;-5.05;75.09
77043;BME280;65975;53.936;27.540;2023-02-28T01:42:14;100503.13;;;-5.21;75.56
77043;BME280;65975;53.936;27.540;2023-02-28T01:47:35;100512.28;;;-4.94;75.00
77043;BME280;65975;53.936;27.540;2023-02-28T01:50:05;100441.38;;;-5.31;74.08
77043;BME280;65975;53.936;27.540;2023-02-28T01:52:32;100479.75;;;-5.29;76.28
77043;BME280;65975;53.936;27.540;2023-02-28T01:55:00;100520.50;;;-5.00;75.37
77043;BME280;65975;53.936;27.540;2023-02-28T01:57:34;100502.34;;;-5.20;75.52
77043;BME280;65975;53.936;27.540;2023-02-28T02:00:24;100521.50;;;-5.12;75.93
77043;BME280;65975;53.936;27.540;2023-02-28T02:02:54;100410.06;;;-5.75;74.98
77043;BME280;65975;53.936;27.540;2023-02-28T02:05:26;100508.00;;;-5.26;76.42
77043;BME280;65975;53.936;27.540;2023-02-28T02:07:56;100513.03;;;-5.28;75.97
77043;BME280;65975;53.936;27.540;2023-02-28T02:10:35;100523.41;;;-5.08;75.55
77043;BME280;65975;53.936;27.540;2023-02-28T02:15:45;100519.34;;;-5.05;75.85
77043;BME280;65975;53.936;27.540;2023-02-28T02:18:30;100520.31;;;-5.19;75.73
77043;BME280;65975;53.936;27.540;2023-02-28T02:28:52;100537.16;;;-5.37;77.10
77043;BME280;65975;53.936;27.540;2023-02-28T02:31:27;100540.25;;;-5.43;77.08
77043;BME280;65975;53.936;27.540;2023-02-28T02:36:36;100532.44;;;-5.46;76.87
77043;BME280;65975;53.936;27.540;2023-02-28T02:39:47;100533.69;;;-5.54;77.89
77043;BME280;65975;53.936;27.540;2023-02-28T02:41:53;100535.78;;;-5.47;77.33
77043;BME280;65975;53.936;27.540;2023-02-28T02:44:40;100523.50;;;-5.69;77.97
77043;BME280;65975;53.936;27.540;2023-02-28T02:47:15;100536.22;;;-5.54;77.27
77043;BME280;65975;53.936;27.540;2023-02-28T02:49:49;100520.69;;;-5.58;77.36
77043;BME280;65975;53.936;27.540;2023-02-28T02:52:19;100522.94;;;-5.48;77.48
77043;BME280;65975;53.936;27.540;2023-02-28T02:54:47;100515.06;;;-5.82;78.35
77043;BME280;65975;53.936;27.540;2023-02-28T02:57:20;100515.59;;;-5.73;77.64
77043;BME280;65975;53.936;27.540;2023-02-28T02:59:48;100512.94;;;-5.75;77.96
77043;BME280;65975;53.936;27.540;2023-02-28T03:02:15;100511.81;;;-5.65;77.93
77043;BME280;65975;53.936;27.540;2023-02-28T03:04:43;100520.78;;;-5.72;77.55
77043;BME280;65975;53.936;27.540;2023-02-28T03:07:11;100516.28;;;-5.61;77.00
77043;BME280;65975;53.936;27.540;2023-02-28T03:09:36;100352.69;;;-6.45;76.88
77043;BME280;65975;53.936;27.540;2023-02-28T03:12:03;100510.53;;;-5.57;77.01
77043;BME280;65975;53.936;27.540;2023-02-28T03:14:39;100510.06;;;-5.81;77.64
77043;BME280;65975;53.936;27.540;2023-02-28T03:20:02;100518.97;;;-5.89;77.32
77043;BME280;65975;53.936;27.540;2023-02-28T03:28:19;100501.94;;;-5.90;77.55
77043;BME280;65975;53.936;27.540;2023-02-28T03:30:55;100499.84;;;-5.97;77.39
77043;BME280;65975;53.936;27.540;2023-02-28T03:33:34;100503.94;;;-5.84;77.41
77043;BME280;65975;53.936;27.540;2023-02-28T03:36:19;100502.41;;;-5.97;77.07
77043;BME280;65975;53.936;27.540;2023-02-28T03:38:52;100513.19;;;-6.01;77.50
77043;BME280;65975;53.936;27.540;2023-02-28T03:41:24;100505.50;;;-5.72;76.20
77043;BME280;65975;53.936;27.540;2023-02-28T03:43:58;100505.59;;;-5.85;76.94
77043;BME280;65975;53.936;27.540;2023-02-28T03:46:30;100502.41;;;-5.97;77.13
77043;BME280;65975;53.936;27.540;2023-02-28T03:49:30;100504.22;;;-5.94;77.25
77043;BME280;65975;53.936;27.540;2023-02-28T03:52:00;100328.03;;;-6.90;77.05
77043;BME280;65975;53.936;27.540;2023-02-28T03:54:33;100483.66;;;-5.67;75.74
77043;BME280;65975;53.936;27.540;2023-02-28T03:57:10;100478.22;;;-6.03;76.62
77043;BME280;65975;53.936;27.540;2023-02-28T03:59:42;100483.13;;;-5.92;76.42
77043;BME280;65975;53.936;27.540;2023-02-28T04:02:09;100440.53;;;-6.24;76.45
77043;BME280;65975;53.936;27.540;2023-02-28T04:04:35;100466.53;;;-6.15;76.75
77043;BME280;65975;53.936;27.540;2023-02-28T04:07:04;100486.13;;;-6.14;77.40
77043;BME280;65975;53.936;27.540;2023-02-28T04:09:30;100486.84;;;-6.31;77.86
77043;BME280;65975;53.936;27.540;2023-02-28T04:11:55;100487.00;;;-6.28;78.38
77043;BME280;65975;53.936;27.540;2023-02-28T04:14:22;100475.03;;;-6.14;77.82
77043;BME280;65975;53.936;27.540;2023-02-28T04:16:48;100480.66;;;-5.90;76.93
77043;BME280;65975;53.936;27.540;2023-02-28T04:19:14;100492.63;;;-6.19;77.70
77043;BME280;65975;53.936;27.540;2023-02-28T04:21:42;100487.69;;;-6.01;77.00
77043;BME280;65975;53.936;27.540;2023-02-28T04:24:10;100480.31;;;-5.96;76.67
77043;BME280;65975;53.936;27.540;2023-02-28T04:26:41;100403.56;;;-6.61;77.78
77043;BME280;65975;53.936;27.540;2023-02-28T04:29:09;100466.59;;;-6.13;77.65
77043;BME280;65975;53.936;27.540;2023-02-28T04:31:35;100477.78;;;-6.11;78.06
77043;BME280;65975;53.936;27.540;2023-02-28T04:34:00;100471.56;;;-6.16;77.69
77043;BME280;65975;53.936;27.540;2023-02-28T04:36:26;100479.09;;;-6.03;77.43
77043;BME280;65975;53.936;27.540;2023-02-28T04:38:52;100480.16;;;-6.14;77.74
77043;BME280;65975;53.936;27.540;2023-02-28T04:41:17;100464.78;;;-6.16;76.91
77043;BME280;65975;53.936;27.540;2023-02-28T04:43:42;100481.66;;;-6.18;77.73
77043;BME280;65975;53.936;27.540;2023-02-28T04:46:08;100485.09;;;-6.17;77.27
77043;BME280;65975;53.936;27.540;2023-02-28T04:48:37;100478.13;;;-6.20;77.17
77043;BME280;65975;53.936;27.540;2023-02-28T04:51:05;100473.97;;;-5.88;76.92
77043;BME280;65975;53.936;27.540;2023-02-28T04:53:31;100474.34;;;-6.12;77.75
77043;BME280;65975;53.936;27.540;2023-02-28T04:55:57;100475.84;;;-6.15;76.82
77043;BME280;65975;53.936;27.540;2023-02-28T04:58:25;100468.38;;;-6.12;76.78
77043;BME280;65975;53.936;27.540;2023-02-28T05:00:52;100471.00;;;-6.11;77.03
77043;BME280;65975;53.936;27.540;2023-02-28T05:03:18;100394.50;;;-6.56;77.11
77043;BME280;65975;53.936;27.540;2023-02-28T05:05:43;100480.47;;;-5.93;76.38
77043;BME280;65975;53.936;27.540;2023-02-28T05:08:10;100487.97;;;-6.11;76.22
77043;BME280;65975;53.936;27.540;2023-02-28T05:10:36;100501.50;;;-6.12;76.37
77043;BME280;65975;53.936;27.540;2023-02-28T05:13:01;100495.88;;;-6.51;76.89
77043;BME280;65975;53.936;27.540;2023-02-28T05:15:27;100494.91;;;-6.53;77.41
77043;BME280;65975;53.936;27.540;2023-02-28T05:17:52;100386.06;;;-6.84;76.26
77043;BME280;65975;53.936;27.540;2023-02-28T05:20:18;100300.88;;;-7.48;76.12
77043;BME280;65975;53.936;27.540;2023-02-28T05:22:43;100515.28;;;-6.53;76.67
77043;BME280;65975;53.936;27.540;2023-02-28T05:25:17;100478.66;;;-6.55;76.49
77043;BME280;65975;53.936;27.540;2023-02-28T05:27:43;100474.78;;;-6.33;76.24
77043;BME280;65975;53.936;27.540;2023-02-28T05:30:10;100480.88;;;-6.31;74.84
77043;BME280;65975;53.936;27.540;2023-02-28T05:32:38;100466.63;;;-6.42;75.36
77043;BME280;65975;53.936;27.540;2023-02-28T05:35:04;100476.13;;;-6.55;75.89
77043;BME280;65975;53.936;27.540;2023-02-28T05:37:29;100475.91;;;-6.58;75.93
77043;BME280;65975;53.936;27.540;2023-02-28T05:39:55;100475.47;;;-6.21;75.46
77043;BME280;65975;53.936;27.540;2023-02-28T05:42:20;100466.34;;;-6.18;74.50
77043;BME280;65975;53.936;27.540;2023-02-28T05:44:46;100423.47;;;-6.39;75.64
77043;BME280;65975;53.936;27.540;2023-02-28T05:47:11;100471.22;;;-6.22;75.53
77043;BME280;65975;53.936;27.540;2023-02-28T05:49:41;100470.41;;;-6.36;76.02
77043;BME280;65975;53.936;27.540;2023-02-28T05:52:06;100462.06;;;-6.19;75.38
77043;BME280;65975;53.936;27.540;2023-02-28T05:54:32;100462.41;;;-6.13;75.26
77043;BME280;65975;53.936;27.540;2023-02-28T05:56:57;100450.97;;;-6.04;75.32
77043;BME280;65975;53.936;27.540;2023-02-28T05:59:23;100460.53;;;-6.00;75.49
77043;BME280;65975;53.936;27.540;2023-02-28T06:01:48;100454.66;;;-6.14;75.95
77043;BME280;65975;53.936;27.540;2023-02-28T06:04:15;100460.38;;;-6.03;75.27
77043;BME280;65975;53.936;27.540;2023-02-28T06:06:47;100449.78;;;-5.95;74.08
77043;BME280;65975;53.936;27.540;2023-02-28T06:09:14;100453.75;;;-5.69;74.75
77043;BME280;65975;53.936;27.540;2023-02-28T06:11:40;100450.25;;;-6.02;75.31
77043;BME280;65975;53.936;27.540;2023-02-28T06:14:06;100452.69;;;-5.89;74.82
77043;BME280;65975;53.936;27.540;2023-02-28T06:16:33;100446.44;;;-5.94;74.93
77043;BME280;65975;53.936;27.540;2023-02-28T06:19:01;100436.00;;;-5.82;74.87
77043;BME280;65975;53.936;27.540;2023-02-28T06:21:29;100442.06;;;-5.66;75.10
77043;BME280;65975;53.936;27.540;2023-02-28T06:23:55;100442.53;;;-5.56;74.17
77043;BME280;65975;53.936;27.540;2023-02-28T06:26:21;100430.44;;;-5.44;73.81
77043;BME280;65975;53.936;27.540;2023-02-28T06:28:48;100434.09;;;-5.55;74.00
77043;BME280;65975;53.936;27.540;2023-02-28T06:31:15;100429.72;;;-5.58;74.36
77043;BME280;65975;53.936;27.540;2023-02-28T06:33:42;100430.03;;;-5.52;74.27
77043;BME280;65975;53.936;27.540;2023-02-28T06:36:09;100426.28;;;-5.42;73.86
77043;BME280;65975;53.936;27.540;2023-02-28T06:38:36;100441.69;;;-5.25;73.49
77043;BME280;65975;53.936;27.540;2023-02-28T06:41:02;100429.00;;;-5.23;72.93
77043;BME280;65975;53.936;27.540;2023-02-28T06:43:29;100417.94;;;-5.07;72.98
77043;BME280;65975;53.936;27.540;2023-02-28T06:45:58;100424.34;;;-4.65;71.93
77043;BME280;65975;53.936;27.540;2023-02-28T06:48:26;100416.66;;;-5.15;72.93
77043;BME280;65975;53.936;27.540;2023-02-28T06:50:51;100420.72;;;-4.87;71.93
77043;BME280;65975;53.936;27.540;2023-02-28T06:53:17;100411.94;;;-4.58;71.15
77043;BME280;65975;53.936;27.540;2023-02-28T06:55:42;100405.63;;;-4.48;71.46
77043;BME280;65975;53.936;27.540;2023-02-28T06:58:08;100421.28;;;-4.58;71.54
77043;BME280;65975;53.936;27.540;2023-02-28T07:00:43;100417.13;;;-4.90;72.20
77043;BME280;65975;53.936;27.540;2023-02-28T07:03:09;100429.63;;;-4.78;71.85
77043;BME280;65975;53.936;27.540;2023-02-28T07:05:36;100431.69;;;-4.71;71.82
77043;BME280;65975;53.936;27.540;2023-02-28T07:08:02;100432.88;;;-4.65;71.89
77043;BME280;65975;53.936;27.540;2023-02-28T07:10:29;100436.25;;;-4.66;71.26
77043;BME280;65975;53.936;27.540;2023-02-28T07:12:54;100434.31;;;-4.54;71.24
77043;BME280;65975;53.936;27.540;2023-02-28T07:15:20;100429.84;;;-4.06;69.83
77043;BME280;65975;53.936;27.540;2023-02-28T07:17:45;100418.94;;;-4.37;70.33
77043;BME280;65975;53.936;27.540;2023-02-28T07:20:11;100419.91;;;-4.52;71.26
77043;BME280;65975;53.936;27.540;2023-02-28T07:22:36;100403.22;;;-4.45;71.11
77043;BME280;65975;53.936;27.540;2023-02-28T07:25:04;100413.31;;;-3.77;70.16
77043;BME280;65975;53.936;27.540;2023-02-28T07:27:30;100405.06;;;-4.07;70.22
77043;BME280;65975;53.936;27.540;2023-02-28T07:29:55;100408.69;;;-3.67;69.07
77043;BME280;65975;53.936;27.540;2023-02-28T07:32:21;100408.25;;;-3.76;69.86
77043;BME280;65975;53.936;27.540;2023-02-28T07:34:46;100405.56;;;-3.42;69.19
77043;BME280;65975;53.936;27.540;2023-02-28T07:37:12;100406.25;;;-3.46;69.38
77043;BME280;65975;53.936;27.540;2023-02-28T07:39:37;100410.78;;;-3.21;68.94
77043;BME280;65975;53.936;27.540;2023-02-28T07:42:06;100408.91;;;-3.25;68.65
77043;BME280;65975;53.936;27.540;2023-02-28T07:44:35;100421.25;;;-3.53;69.50
77043;BME280;65975;53.936;27.540;2023-02-28T07:47:08;100408.53;;;-3.33;69.38
77043;BME280;65975;53.936;27.540;2023-02-28T07:49:37;100286.19;;;-3.78;68.66
77043;BME280;65975;53.936;27.540;2023-02-28T07:52:04;100399.78;;;-2.99;68.08
77043;BME280;65975;53.936;27.540;2023-02-28T07:54:30;100398.69;;;-3.04;67.86
77043;BME280;65975;53.936;27.540;2023-02-28T07:56:55;100380.84;;;-2.63;67.77
77043;BME280;65975;53.936;27.540;2023-02-28T07:59:21;100376.88;;;-2.75;67.65
77043;BME280;65975;53.936;27.540;2023-02-28T08:01:46;100391.41;;;-2.55;67.46
77043;BME280;65975;53.936;27.540;2023-02-28T08:04:14;100395.63;;;-2.36;66.48
77043;BME280;65975;53.936;27.540;2023-02-28T08:06:40;100405.72;;;-2.39;66.78
77043;BME280;65975;53.936;27.540;2023-02-28T08:09:05;100387.34;;;-2.29;67.65
77043;BME280;65975;53.936;27.540;2023-02-28T08:11:31;100350.91;;;-2.43;66.32
77043;BME280;65975;53.936;27.540;2023-02-28T08:13:56;100386.13;;;-1.74;66.32
77043;BME280;65975;53.936;27.540;2023-02-28T08:16:22;100378.94;;;-1.38;64.76
77043;BME280;65975;53.936;27.540;2023-02-28T08:18:52;100383.44;;;-1.32;64.17
77043;BME280;65975;53.936;27.540;2023-02-28T08:21:18;100408.97;;;-1.59;64.79
77043;BME280;65975;53.936;27.540;2023-02-28T08:23:47;100383.22;;;-1.38;64.17
77043;BME280;65975;53.936;27.540;2023-02-28T08:26:13;100382.13;;;-1.45;64.80
77043;BME280;65975;53.936;27.540;2023-02-28T08:28:38;100377.84;;;-1.44;64.74
77043;BME280;65975;53.936;27.540;2023-02-28T08:31:12;100375.72;;;-1.32;64.76
77043;BME280;65975;53.936;27.540;2023-02-28T08:33:39;100370.38;;;-1.38;64.20
77043;BME280;65975;53.936;27.540;2023-02-28T08:36:05;100365.16;;;-1.40;64.26
77043;BME280;65975;53.936;27.540;2023-02-28T08:38:31;100378.88;;;-1.17;64.79
77043;BME280;65975;53.936;27.540;2023-02-28T08:41:02;100404.94;;;-1.06;63.70
77043;BME280;65975;53.936;27.540;2023-02-28T08:43:31;100383.59;;;-0.80;63.57
77043;BME280;65975;53.936;27.540;2023-02-28T08:45:56;100357.06;;;-0.79;63.35
77043;BME280;65975;53.936;27.540;2023-02-28T08:48:26;100370.28;;;-0.68;62.42
77043;BME280;65975;53.936;27.540;2023-02-28T08:51:06;100373.53;;;-0.49;61.86
77043;BME280;65975;53.936;27.540;2023-02-28T08:53:32;100352.91;;;-0.23;60.22
77043;BME280;65975;53.936;27.540;2023-02-28T08:56:08;100367.69;;;-0.94;61.94
77043;BME280;65975;53.936;27.540;2023-02-28T08:58:34;100368.88;;;-0.84;62.07
77043;BME280;65975;53.936;27.540;2023-02-28T09:01:00;100363.81;;;-0.30;60.85
77043;BME280;65975;53.936;27.540;2023-02-28T09:03:32;100362.81;;;-0.61;60.45
77043;BME280;65975;53.936;27.540;2023-02-28T09:05:59;100367.38;;;-0.77;60.65
77043;BME280;65975;53.936;27.540;2023-02-28T09:08:28;100362.56;;;-0.43;60.34
77043;BME280;65975;53.936;27.540;2023-02-28T09:10:54;100346.56;;;-1.09;60.29
77043;BME280;65975;53.936;27.540;2023-02-28T09:13:22;100366.63;;;-1.24;61.75
77043;BME280;65975;53.936;27.540;2023-02-28T09:15:48;100350.72;;;-0.89;60.93
77043;BME280;65975;53.936;27.540;2023-02-28T09:18:14;100345.97;;;-0.78;60.26
77043;BME280;65975;53.936;27.540;2023-02-28T09:20:40;100338.88;;;-0.60;59.92
77043;BME280;65975;53.936;27.540;2023-02-28T09:23:07;100350.69;;;-0.65;59.31
77043;BME280;65975;53.936;27.540;2023-02-28T09:25:34;100333.03;;;-0.54;58.94
77043;BME280;65975;53.936;27.540;2023-02-28T09:27:59;100335.81;;;0.06;56.54
77043;BME280;65975;53.936;27.540;2023-02-28T09:30:25;100326.97;;;-0.29;59.07
77043;BME280;65975;53.936;27.540;2023-02-28T09:32:50;100312.16;;;-0.36;58.13
77043;BME280;65975;53.936;27.540;2023-02-28T09:35:18;100280.25;;;0.14;56.33
77043;BME280;65975;53.936;27.540;2023-02-28T09:37:44;100324.47;;;0.57;55.47
77043;BME280;65975;53.936;27.540;2023-02-28T09:40:11;100312.28;;;1.49;53.71
77043;BME280;65975;53.936;27.540;2023-02-28T09:42:37;100322.47;;;2.16;51.05
77043;BME280;65975;53.936;27.540;2023-02-28T09:45:14;100322.88;;;2.76;49.84
77043;BME280;65975;53.936;27.540;2023-02-28T09:47:45;100310.25;;;2.92;48.82
77043;BME280;65975;53.936;27.540;2023-02-28T09:50:44;100330.31;;;1.83;52.06
77043;BME280;65975;53.936;27.540;2023-02-28T09:53:28;100324.16;;;2.16;51.03
77043;BME280;65975;53.936;27.540;2023-02-28T09:58:34;100332.41;;;3.26;47.15
77043;BME280;65975;53.936;27.540;2023-02-28T10:02:08;100326.44;;;2.41;51.63
77043;BME280;65975;53.936;27.540;2023-02-28T10:04:42;100322.38;;;2.52;48.86
77043;BME280;65975;53.936;27.540;2023-02-28T10:07:20;100311.72;;;2.80;47.89
77043;BME280;65975;53.936;27.540;2023-02-28T10:09:49;100324.72;;;2.03;50.23
77043;BME280;65975;53.936;27.540;2023-02-28T10:12:17;100299.72;;;1.64;51.19
77043;BME280;65975;53.936;27.540;2023-02-28T10:14:47;100324.03;;;1.72;51.05
77043;BME280;65975;53.936;27.540;2023-02-28T10:17:21;100337.25;;;1.50;50.89
77043;BME280;65975;53.936;27.540;2023-02-28T10:22:20;100321.91;;;1.22;51.03
77043;BME280;65975;53.936;27.540;2023-02-28T10:24:49;100312.78;;;1.70;50.50
77043;BME280;65975;53.936;27.540;2023-02-28T10:27:20;100305.44;;;1.16;49.72
77043;BME280;65975;53.936;27.540;2023-02-28T10:29:57;100306.34;;;1.18;52.11
77043;BME280;65975;53.936;27.540;2023-02-28T10:32:32;100274.47;;;1.51;51.68
77043;BME280;65975;53.936;27.540;2023-02-28T10:35:14;100280.19;;;1.74;48.50
77043;BME280;65975;53.936;27.540;2023-02-28T10:37:42;100266.03;;;2.36;47.48
77043;BME280;65975;53.936;27.540;2023-02-28T10:42:55;100245.00;;;3.63;45.90
77043;BME280;65975;53.936;27.540;2023-02-28T10:45:21;100243.09;;;3.49;44.55
77043;BME280;65975;53.936;27.540;2023-02-28T10:50:42;100240.31;;;2.87;44.23
77043;BME280;65975;53.936;27.540;2023-02-28T10:55:41;100210.97;;;3.38;44.66
77043;BME280;65975;53.936;27.540;2023-02-28T10:58:23;100216.25;;;4.06;43.01
77043;BME280;65975;53.936;27.540;2023-02-28T11:00:50;100199.50;;;3.79;43.92
77043;BME280;65975;53.936;27.540;2023-02-28T11:03:29;100205.63;;;3.86;43.17
77043;BME280;65975;53.936;27.540;2023-02-28T11:05:55;100170.59;;;5.03;42.04
77043;BME280;65975;53.936;27.540;2023-02-28T11:08:21;100209.00;;;5.45;39.21
77043;BME280;65975;53.936;27.540;2023-02-28T11:10:53;100203.88;;;4.56;40.43
77043;BME280;65975;53.936;27.540;2023-02-28T11:13:20;100191.06;;;5.86;39.31
77043;BME280;65975;53.936;27.540;2023-02-28T11:15:55;100194.03;;;5.10;41.33
77043;BME280;65975;53.936;27.540;2023-02-28T11:18:27;100182.53;;;6.05;40.70
77043;BME280;65975;53.936;27.540;2023-02-28T11:20:55;100176.72;;;6.99;37.98
77043;BME280;65975;53.936;27.540;2023-02-28T11:23:25;100176.22;;;5.65;39.88
77043;BME280;65975;53.936;27.540;2023-02-28T11:25:54;100179.28;;;6.76;37.63
77043;BME280;65975;53.936;27.540;2023-02-28T11:28:30;100160.22;;;7.03;37.56
77043;BME280;65975;53.936;27.540;2023-02-28T11:36:28;100142.84;;;6.96;35.77
77043;BME280;65975;53.936;27.540;2023-02-28T11:38:56;100150.66;;;6.71;37.05
77043;BME280;65975;53.936;27.540;2023-02-28T11:50:13;100155.84;;;6.61;37.18
77043;BME280;65975;53.936;27.540;2023-02-28T11:52:56;100147.19;;;6.78;36.75
77043;BME280;65975;53.936;27.540;2023-02-28T12:03:53;100134.69;;;8.25;35.89
77043;BME280;65975;53.936;27.540;2023-02-28T12:09:39;100115.13;;;8.93;33.59
77043;BME280;65975;53.936;27.540;2023-02-28T12:12:42;100125.16;;;8.22;36.11
77043;BME280;65975;53.936;27.540;2023-02-28T12:18:07;100103.72;;;9.06;33.75
77043;BME280;65975;53.936;27.540;2023-02-28T12:28:46;100087.19;;;9.85;31.34
77043;BME280;65975;53.936;27.540;2023-02-28T12:31:20;100085.91;;;8.45;34.28
77043;BME280;65975;53.936;27.540;2023-02-28T12:33:52;100087.91;;;9.93;32.95
77043;BME280;65975;53.936;27.540;2023-02-28T12:36:19;100056.16;;;10.23;31.51
77043;BME280;65975;53.936;27.540;2023-02-28T12:38:55;100058.50;;;9.74;31.79
77043;BME280;65975;53.936;27.540;2023-02-28T12:44:44;100043.97;;;8.65;35.07
77043;BME280;65975;53.936;27.540;2023-02-28T12:47:16;100049.44;;;9.32;33.14
77043;BME280;65975;53.936;27.540;2023-02-28T12:52:19;100053.25;;;8.99;33.61
77043;BME280;65975;53.936;27.540;2023-02-28T12:58:39;100063.63;;;7.80;35.50
77043;BME280;65975;53.936;27.540;2023-02-28T13:09:01;100044.63;;;8.91;33.73
77043;BME280;65975;53.936;27.540;2023-02-28T13:11:48;100051.31;;;8.07;34.58
77043;BME280;65975;53.936;27.540;2023-02-28T13:17:01;100027.03;;;7.98;35.12
77043;BME280;65975;53.936;27.540;2023-02-28T13:19:29;100022.88;;;8.89;34.90
77043;BME280;65975;53.936;27.540;2023-02-28T13:21:56;99975.22;;;8.67;34.47
77043;BME280;65975;53.936;27.540;2023-02-28T13:24:42;100021.28;;;9.55;33.26
77043;BME280;65975;53.936;27.540;2023-02-28T13:29:40;100007.03;;;9.07;33.61
77043;BME280;65975;53.936;27.540;2023-02-28T13:35:16;100009.75;;;9.70;32.68
77043;BME280;65975;53.936;27.540;2023-02-28T13:39:51;100007.03;;;9.07;34.38
77043;BME280;65975;53.936;27.540;2023-02-28T13:50:40;99995.25;;;8.64;35.45
77043;BME280;65975;53.936;27.540;2023-02-28T13:56:09;100006.44;;;8.79;35.02
77043;BME280;65975;53.936;27.540;2023-02-28T13:59:00;99998.03;;;9.31;33.86
77043;BME280;65975;53.936;27.540;2023-02-28T14:02:40;99990.41;;;8.12;35.32
77043;BME280;65975;53.936;27.540;2023-02-28T14:05:15;99989.28;;;5.98;40.02
77043;BME280;65975;53.936;27.540;2023-02-28T14:07:48;99962.34;;;5.69;41.03
77043;BME280;65975;53.936;27.540;2023-02-28T14:11:06;99961.09;;;4.76;42.95
77043;BME280;65975;53.936;27.540;2023-02-28T14:16:05;99975.25;;;4.09;45.39
77043;BME280;65975;53.936;27.540;2023-02-28T14:18:36;99941.94;;;3.54;45.79
77043;BME280;65975;53.936;27.540;2023-02-28T14:21:22;99965.22;;;3.53;46.69
77043;BME280;65975;53.936;27.540;2023-02-28T14:32:40;99967.16;;;3.00;48.88
77043;BME280;65975;53.936;27.540;2023-02-28T14:37:37;99970.53;;;2.91;49.42
77043;BME280;65975;53.936;27.540;2023-02-28T14:40:11;99967.56;;;2.67;50.18
77043;BME280;65975;53.936;27.540;2023-02-28T14:42:37;99970.06;;;2.59;50.49
77043;BME280;65975;53.936;27.540;2023-02-28T14:45:18;99935.31;;;2.40;50.47
77043;BME280;65975;53.936;27.540;2023-02-28T14:47:44;99983.44;;;2.34;50.81
77043;BME280;65975;53.936;27.540;2023-02-28T14:50:47;99968.22;;;2.51;51.83
77043;BME280;65975;53.936;27.540;2023-02-28T14:53:17;99953.22;;;2.28;51.62
77043;BME280;65975;53.936;27.540;2023-02-28T14:55:45;99969.13;;;2.54;51.90
77043;BME280;65975;53.936;27.540;2023-02-28T14:58:27;99974.84;;;2.35;51.94
77043;BME280;65975;53.936;27.540;2023-02-28T15:00:55;99961.31;;;1.97;53.09
77043;BME280;65975;53.936;27.540;2023-02-28T15:06:05;99978.38;;;1.89;53.10
77043;BME280;65975;53.936;27.540;2023-02-28T15:08:32;99982.69;;;1.88;53.51